Shantou Waisha Airport
ZGOW : now visible

Airfield :











YOU CAN JOIN US ON...

 
LOGIN :

Register | Disclaimer

   EN    FR    IT 

 









Legend :    VFR   Marginal VFR   IFR   Intensive IFR   Very Intensive IFR
Visi :
Ceiling :
>= 8 km
>= 3000ft
5 to 8 km
1000 to 3000 ft
1500m to 5 km
500 to 1000 ft
800 to 1500m
200 to 500 ft
< 800m
< 200 ft
Symbols :   Thunderstorms  Fog  Heavy snow  Heavy precipitations  Wind > 20 kt






- Airport Elevation : 0 ft
- IATA code : SWA


ZGOW - Shantou Waisha

CURRENT METAR :
  • 131200Z 08003MPS CAVOK 22/17 Q1019 NOSIG

EXPIRED METARs :
  • 131100Z 09002MPS 060V120 8000 NSC 23/17 Q1018 NOSIG
  • 131000Z 09003MPS 060V120 8000 NSC 23/17 Q1017 NOSIG
  • 130900Z 10005MPS 070V130 8000 NSC 24/16 Q1017 NOSIG

TAF TAF ZGOW
Valid from the 13 at 12:00 until the 14 at 12:00 UTC


130904Z 1312/1412 36004G11MPS 6000 FEW023 SCT050 TX26/1406Z TN14/1322Z



MET'MAP, your aeronautical weather chart ! - Copyright ORBIFLY December 2007 - Disclaimer

ORBIFLY MET'MAP TEAM :

Programming & Development : Alexandra Zaïnal
Concept & Development : Baudouin d'Aumeries
Co-Development & Prog : Marc-Olivier Méhu
Technical & hardware support : Manuel Goepfert

Contact : metmap@orbifly.com




SOURCES & CREDITS :

   NOAA       Earth
Advisory